Lawton, Nevada
Current Conditions -  °F | °C
As of 5:55 PM on Wednesday 26 Nov 2014 (Local Time) from KRNO Reporting Station
Broken Clouds Broken Clouds  
Wind Chill: 59°   Ceiling: 25000
Heat Index: 59°   Visibility: 10mi
Dew Point: 30°   Wind: 3mph
Humidity: 33%   Direction: 110°ESE
Pressure: 30.32"   Gusts: NA
Location:  39.5376°N, 119.841°W
Report Text: KRNO 270155Z 11003KT 10SM SCT180 BKN250 15/M01 A3032 RMK AO2 SLP257 T01501011
Loading
Personal Weather Stations






























Interactive Weather Map New forecast layout! Learn more

10-Day Weather Forecast

Advertisements
Track Severe Weather on mobile